createdAt,value
2019-05-07T00:01:55.172Z,16.81
2019-05-07T00:04:26.943Z,16.80
2019-05-07T00:06:58.306Z,16.78
2019-05-07T00:09:32.141Z,16.77
2019-05-07T00:12:05.061Z,16.76
2019-05-07T00:14:35.987Z,16.71
2019-05-07T00:17:09.019Z,16.69
2019-05-07T00:19:40.374Z,16.61
2019-05-07T00:22:12.570Z,16.64
2019-05-07T00:24:44.252Z,16.55
2019-05-07T00:27:15.605Z,16.51
2019-05-07T00:29:47.036Z,16.54
2019-05-07T00:32:18.421Z,16.57
2019-05-07T00:35:06.650Z,16.61
2019-05-07T00:37:40.050Z,16.64
2019-05-07T00:40:13.609Z,16.67
2019-05-07T00:43:02.967Z,16.63
2019-05-07T00:45:35.979Z,16.60
2019-05-07T00:48:07.271Z,16.58
2019-05-07T00:50:42.035Z,16.60
2019-05-07T00:53:13.427Z,16.57
2019-05-07T00:55:44.720Z,16.49
2019-05-07T00:58:16.065Z,16.47
2019-05-07T01:00:47.463Z,16.49
2019-05-07T01:03:18.787Z,16.52
2019-05-07T01:05:52.496Z,16.56
2019-05-07T01:08:23.788Z,16.61
2019-05-07T01:10:55.061Z,16.59
2019-05-07T01:13:26.445Z,16.57
2019-05-07T01:15:57.897Z,16.54
2019-05-07T01:18:29.275Z,16.56
2019-05-07T01:21:02.387Z,16.61
2019-05-07T01:23:34.880Z,16.57
2019-05-07T01:26:06.533Z,16.62
2019-05-07T01:28:55.581Z,16.73
2019-05-07T01:31:33.039Z,16.63
2019-05-07T01:34:14.986Z,16.49
2019-05-07T01:36:46.318Z,16.31
2019-05-07T01:39:23.009Z,16.20
2019-05-07T01:41:53.659Z,16.29
2019-05-07T01:44:25.911Z,16.36
2019-05-07T01:46:57.348Z,16.36
2019-05-07T01:49:28.706Z,16.36
2019-05-07T01:52:02.301Z,16.36
2019-05-07T01:54:33.509Z,16.37
2019-05-07T01:57:04.886Z,16.33
2019-05-07T01:59:36.142Z,16.30
2019-05-07T02:02:14.851Z,16.30
2019-05-07T02:04:47.840Z,16.26
2019-05-07T02:07:22.591Z,16.32
2019-05-07T02:10:03.963Z,16.36
2019-05-07T02:12:36.959Z,16.32
2019-05-07T02:15:09.413Z,16.37
2019-05-07T02:17:43.011Z,16.40
2019-05-07T02:20:14.187Z,16.45
2019-05-07T02:22:45.457Z,16.55
2019-05-07T02:25:16.728Z,16.57
2019-05-07T02:27:47.986Z,16.53
2019-05-07T02:30:19.235Z,16.57
2019-05-07T02:32:53.682Z,16.61
2019-05-07T02:35:23.847Z,16.63
2019-05-07T02:38:05.975Z,16.59
2019-05-07T02:40:43.314Z,16.66
2019-05-07T02:43:14.847Z,16.76
2019-05-07T02:46:17.499Z,16.72
2019-05-07T02:48:53.642Z,16.67
2019-05-07T02:51:35.840Z,16.69
2019-05-07T02:54:25.865Z,16.71
2019-05-07T02:56:57.169Z,16.70
2019-05-07T02:59:29.376Z,16.88
2019-05-07T03:02:03.355Z,16.98
2019-05-07T03:04:33.654Z,17.05
2019-05-07T03:07:05.278Z,17.03
2019-05-07T03:09:36.697Z,17.03
2019-05-07T03:12:08.944Z,17.01
2019-05-07T03:14:43.559Z,17.02
2019-05-07T03:17:13.750Z,16.99
2019-05-07T03:19:46.736Z,16.98
2019-05-07T03:22:17.981Z,17.00
2019-05-07T03:24:57.153Z,17.00
2019-05-07T03:27:28.430Z,17.02
2019-05-07T03:30:04.411Z,17.04
2019-05-07T03:32:38.704Z,17.01
2019-05-07T03:35:28.140Z,17.07
2019-05-07T03:38:03.078Z,17.23
2019-05-07T03:40:34.443Z,17.22
2019-05-07T03:43:06.492Z,17.20
2019-05-07T03:45:56.147Z,17.15
2019-05-07T03:48:29.133Z,17.26
2019-05-07T03:51:03.401Z,17.31
2019-05-07T03:53:34.096Z,17.54
2019-05-07T03:56:05.723Z,17.50
2019-05-07T03:58:37.040Z,17.49
2019-05-07T04:01:08.370Z,17.46
2019-05-07T04:03:39.656Z,17.46
2019-05-07T04:06:12.800Z,17.49
2019-05-07T04:08:44.015Z,17.56
2019-05-07T04:11:15.342Z,17.50
2019-05-07T04:13:46.601Z,17.46
2019-05-07T04:16:17.930Z,17.45
2019-05-07T04:18:49.201Z,17.51
2019-05-07T04:21:22.984Z,17.48
2019-05-07T04:23:55.205Z,17.54
2019-05-07T04:26:44.733Z,17.66
2019-05-07T04:29:17.737Z,17.62
2019-05-07T04:31:49.122Z,17.65
2019-05-07T04:34:24.982Z,17.57
2019-05-07T04:36:56.420Z,17.56
2019-05-07T04:39:27.839Z,17.64
2019-05-07T04:41:59.301Z,17.68
2019-05-07T04:44:33.183Z,17.77
2019-05-07T04:47:04.645Z,17.77
2019-05-07T04:49:36.986Z,17.84
2019-05-07T04:52:12.480Z,17.96
2019-05-07T04:54:43.827Z,18.03
2019-05-07T04:57:27.598Z,18.15
2019-05-07T05:00:02.584Z,18.20
2019-05-07T05:02:34.206Z,18.35
2019-05-07T05:05:05.845Z,18.41
2019-05-07T05:07:37.217Z,18.59
2019-05-07T05:10:08.876Z,18.46
2019-05-07T05:12:42.674Z,18.45
2019-05-07T05:15:13.260Z,18.53
2019-05-07T05:17:50.455Z,18.37
2019-05-07T05:20:22.071Z,18.41
2019-05-07T05:23:07.110Z,18.36
2019-05-07T05:25:43.230Z,18.37
2019-05-07T05:28:15.719Z,18.19
2019-05-07T05:30:48.674Z,18.11
2019-05-07T05:33:20.026Z,18.02
2019-05-07T05:35:52.537Z,18.11
2019-05-07T05:38:23.973Z,18.29
2019-05-07T05:40:55.317Z,18.11
2019-05-07T05:43:31.922Z,18.09
2019-05-07T05:46:05.133Z,18.14
2019-05-07T05:48:36.537Z,18.18
2019-05-07T05:51:12.447Z,18.25
2019-05-07T05:53:52.423Z,18.62
2019-05-07T05:56:28.509Z,20.12
2019-05-07T05:59:07.284Z,23.66
2019-05-07T06:01:56.685Z,24.13
2019-05-07T06:04:32.929Z,22.81
2019-05-07T06:07:13.938Z,22.04
2019-05-07T06:09:43.697Z,22.40
2019-05-07T06:12:25.786Z,23.09
2019-05-07T06:14:58.931Z,24.04
2019-05-07T06:17:48.406Z,23.83
2019-05-07T06:20:36.591Z,25.09
2019-05-07T06:23:22.620Z,28.05
2019-05-07T06:25:55.072Z,28.53
2019-05-07T06:28:26.333Z,29.90
2019-05-07T06:30:57.620Z,29.88
2019-05-07T06:33:29.056Z,30.23
2019-05-07T06:36:02.674Z,30.24
2019-05-07T06:38:35.128Z,29.62
2019-05-07T06:41:08.088Z,29.82
2019-05-07T06:43:42.154Z,29.91
2019-05-07T06:46:13.612Z,28.50
2019-05-07T06:48:46.187Z,26.22
2019-05-07T06:51:17.903Z,24.09
2019-05-07T06:53:49.308Z,22.86
2019-05-07T06:56:22.899Z,22.23
2019-05-07T06:59:02.208Z,21.80
2019-05-07T07:01:52.984Z,21.54
2019-05-07T07:04:26.089Z,21.56
2019-05-07T07:06:58.988Z,21.24
2019-05-07T07:09:37.837Z,21.09
2019-05-07T07:12:21.923Z,21.17
2019-05-07T07:14:52.737Z,21.33
2019-05-07T07:17:25.147Z,21.49
2019-05-07T07:19:56.431Z,21.56
2019-05-07T07:22:27.784Z,21.89
2019-05-07T07:24:59.059Z,22.10
2019-05-07T07:27:32.206Z,22.31
2019-05-07T07:30:06.127Z,22.53
2019-05-07T07:32:39.112Z,22.58
2019-05-07T07:35:12.975Z,22.48
2019-05-07T07:37:44.430Z,22.63
2019-05-07T07:40:18.121Z,22.79
2019-05-07T07:42:52.043Z,22.97
2019-05-07T07:45:23.633Z,22.74
2019-05-07T07:47:54.987Z,22.79
2019-05-07T07:50:26.303Z,23.07
2019-05-07T07:52:57.644Z,23.27
2019-05-07T07:55:32.908Z,22.97
2019-05-07T07:58:05.252Z,22.88
2019-05-07T08:00:38.177Z,23.02
2019-05-07T08:03:13.214Z,23.03
2019-05-07T08:05:44.041Z,23.00
2019-05-07T08:08:15.395Z,22.87
2019-05-07T08:10:46.750Z,22.85
2019-05-07T08:13:18.999Z,22.82
2019-05-07T08:15:51.916Z,22.69
2019-05-07T08:18:23.411Z,22.85
2019-05-07T08:20:54.817Z,22.99
2019-05-07T08:23:26.174Z,22.98
2019-05-07T08:25:57.470Z,23.20
2019-05-07T08:28:28.725Z,23.51
2019-05-07T08:31:04.662Z,23.79
2019-05-07T08:33:43.530Z,23.57
2019-05-07T08:36:16.457Z,23.42
2019-05-07T08:38:52.943Z,23.65
2019-05-07T08:41:26.605Z,24.04
2019-05-07T08:44:10.651Z,24.39
2019-05-07T08:46:39.575Z,24.39
2019-05-07T08:49:15.238Z,24.33
2019-05-07T08:51:48.266Z,24.22
2019-05-07T08:54:19.518Z,24.16
2019-05-07T08:56:52.759Z,24.27
2019-05-07T08:59:24.250Z,24.41
2019-05-07T09:01:55.612Z,24.56
2019-05-07T09:04:26.959Z,24.87
2019-05-07T09:06:58.329Z,25.02
2019-05-07T09:09:29.596Z,24.89
2019-05-07T09:12:02.995Z,24.91
2019-05-07T09:14:33.909Z,25.09
2019-05-07T09:17:05.280Z,24.68
2019-05-07T09:19:48.309Z,25.03
2019-05-07T09:22:12.701Z,25.08
2019-05-07T09:24:44.158Z,25.31
2019-05-07T09:27:17.231Z,25.69
2019-05-07T09:29:52.856Z,25.83
2019-05-07T09:32:35.076Z,25.61
2019-05-07T09:35:13.970Z,25.39
2019-05-07T09:37:45.238Z,25.43
2019-05-07T09:40:16.541Z,25.37
2019-05-07T09:42:47.919Z,25.32
2019-05-07T09:45:19.258Z,25.33
2019-05-07T09:47:52.220Z,25.40
2019-05-07T09:50:23.832Z,25.32
2019-05-07T09:52:55.273Z,25.57
2019-05-07T09:55:26.602Z,25.69
2019-05-07T09:57:57.934Z,25.35
2019-05-07T10:00:32.006Z,25.27
2019-05-07T10:03:03.334Z,25.27
2019-05-07T10:05:34.678Z,25.09
2019-05-07T10:08:06.114Z,25.48
2019-05-07T10:10:37.686Z,25.80
2019-05-07T10:13:12.224Z,25.92
2019-05-07T10:15:43.724Z,25.95
2019-05-07T10:18:16.429Z,25.58
2019-05-07T10:20:47.892Z,25.80
2019-05-07T10:23:23.083Z,25.76
2019-05-07T10:25:55.239Z,25.61
2019-05-07T10:28:28.209Z,25.68
2019-05-07T10:30:59.584Z,25.88
2019-05-07T10:33:31.961Z,26.14
2019-05-07T10:36:05.423Z,26.04
2019-05-07T10:38:36.805Z,25.86
2019-05-07T10:41:08.190Z,26.05
2019-05-07T10:43:39.815Z,26.05
2019-05-07T10:46:12.954Z,25.92
2019-05-07T10:48:47.203Z,25.77
2019-05-07T10:51:18.601Z,25.88
2019-05-07T10:53:51.803Z,26.11
2019-05-07T10:56:24.282Z,26.02
2019-05-07T10:58:55.893Z,25.70
2019-05-07T11:01:37.975Z,25.70
2019-05-07T11:04:09.264Z,25.71
2019-05-07T11:06:48.856Z,25.87
2019-05-07T11:09:30.289Z,25.77
2019-05-07T11:12:02.557Z,25.80
2019-05-07T11:14:34.118Z,26.03
2019-05-07T11:17:23.189Z,25.82
2019-05-07T11:19:54.558Z,25.85
2019-05-07T11:22:26.731Z,25.84
2019-05-07T11:24:58.111Z,25.80
2019-05-07T11:27:32.834Z,26.00
2019-05-07T11:30:04.747Z,26.20
2019-05-07T11:32:36.173Z,26.33
2019-05-07T11:35:08.327Z,26.29
2019-05-07T11:37:39.707Z,26.19
2019-05-07T11:40:13.106Z,25.95
2019-05-07T11:43:02.477Z,25.87
2019-05-07T11:45:47.936Z,25.62
2019-05-07T11:48:22.128Z,25.88
2019-05-07T11:51:07.674Z,25.99
2019-05-07T11:53:41.889Z,25.85
2019-05-07T11:56:14.636Z,26.11
2019-05-07T11:58:46.065Z,26.06
2019-05-07T12:01:19.414Z,25.89
2019-05-07T12:03:52.046Z,25.71
2019-05-07T12:06:24.499Z,25.51
2019-05-07T12:08:55.836Z,25.36
2019-05-07T12:11:27.267Z,25.14
2019-05-07T12:13:58.692Z,25.26
2019-05-07T12:16:32.120Z,25.11
2019-05-07T12:19:03.225Z,25.14
2019-05-07T12:21:35.317Z,25.06
2019-05-07T12:24:06.897Z,25.14
2019-05-07T12:26:41.712Z,25.23
2019-05-07T12:29:13.191Z,25.30
2019-05-07T12:31:46.260Z,25.26
2019-05-07T12:34:19.277Z,25.27
2019-05-07T12:36:52.414Z,25.24
2019-05-07T12:39:23.964Z,25.29
2019-05-07T12:41:55.354Z,25.35
2019-05-07T12:44:26.871Z,25.31
2019-05-07T12:46:58.318Z,25.29
2019-05-07T12:49:29.790Z,25.08
2019-05-07T12:52:09.897Z,25.12
2019-05-07T12:54:45.593Z,25.31
2019-05-07T12:57:16.978Z,25.45
2019-05-07T12:59:49.679Z,25.49
2019-05-07T13:02:37.084Z,25.12
2019-05-07T13:04:58.036Z,25.12
2019-05-07T13:07:32.417Z,25.14
2019-05-07T13:10:08.234Z,25.01
2019-05-07T13:12:39.189Z,25.02
2019-05-07T13:15:24.389Z,25.07
2019-05-07T13:17:43.936Z,24.84
2019-05-07T13:20:15.678Z,24.53
2019-05-07T13:22:47.078Z,24.58
2019-05-07T13:25:18.744Z,24.60
2019-05-07T13:27:52.110Z,24.55
2019-05-07T13:30:24.281Z,24.53
2019-05-07T13:32:56.890Z,24.54
2019-05-07T13:35:28.333Z,24.71
2019-05-07T13:38:04.288Z,24.89
2019-05-07T13:40:37.436Z,24.96
2019-05-07T13:43:23.081Z,25.02
2019-05-07T13:45:56.211Z,25.04
2019-05-07T13:48:28.767Z,25.04
2019-05-07T13:51:01.790Z,24.97
2019-05-07T13:53:33.213Z,24.69
2019-05-07T13:56:04.897Z,24.33
2019-05-07T13:58:36.298Z,24.46
2019-05-07T14:01:12.247Z,24.56
2019-05-07T14:03:43.622Z,24.39
2019-05-07T14:06:16.746Z,24.56
2019-05-07T14:08:48.125Z,24.52
2019-05-07T14:11:22.342Z,24.46
2019-05-07T14:13:53.404Z,24.48
2019-05-07T14:16:24.729Z,24.28
2019-05-07T14:18:56.107Z,24.25
2019-05-07T14:21:27.529Z,24.33
2019-05-07T14:23:58.904Z,24.29
2019-05-07T14:26:32.441Z,24.21
2019-05-07T14:29:03.270Z,24.07
2019-05-07T14:31:34.672Z,23.76
2019-05-07T14:34:12.507Z,23.51
2019-05-07T14:36:45.470Z,23.43
2019-05-07T14:39:16.935Z,23.46
2019-05-07T14:41:51.925Z,23.43
2019-05-07T14:44:23.276Z,23.38
2019-05-07T14:46:54.624Z,23.25
2019-05-07T14:49:26.015Z,23.07
2019-05-07T14:51:57.357Z,23.04
2019-05-07T14:54:28.638Z,22.96
2019-05-07T14:57:02.160Z,22.80
2019-05-07T14:59:33.194Z,22.82
2019-05-07T15:02:04.948Z,22.68
2019-05-07T15:04:36.296Z,22.61
2019-05-07T15:07:07.921Z,22.63
2019-05-07T15:09:42.463Z,22.62
2019-05-07T15:12:15.532Z,22.53
2019-05-07T15:14:47.023Z,22.66
2019-05-07T15:17:26.000Z,22.76
2019-05-07T15:19:57.401Z,22.67
2019-05-07T15:22:47.173Z,22.65
2019-05-07T15:25:13.616Z,22.50
2019-05-07T15:27:46.439Z,21.85
2019-05-07T15:30:18.210Z,21.17
2019-05-07T15:32:49.619Z,20.66
2019-05-07T15:35:20.954Z,20.45
2019-05-07T15:37:52.281Z,20.29
2019-05-07T15:40:23.850Z,20.21
2019-05-07T15:42:55.144Z,20.07
2019-05-07T15:45:26.404Z,19.96
2019-05-07T15:47:58.734Z,19.98
2019-05-07T15:50:32.057Z,19.87
2019-05-07T15:53:04.902Z,19.65
2019-05-07T15:55:36.242Z,19.75
2019-05-07T15:58:07.600Z,19.60
2019-05-07T16:00:39.198Z,19.63
2019-05-07T16:03:12.320Z,19.68
2019-05-07T16:05:43.841Z,19.62
2019-05-07T16:08:16.650Z,19.41
2019-05-07T16:10:48.178Z,19.13
2019-05-07T16:13:22.371Z,19.04
2019-05-07T16:15:54.976Z,18.89
2019-05-07T16:18:32.666Z,18.80
2019-05-07T16:21:05.217Z,18.62
2019-05-07T16:23:36.618Z,18.36
2019-05-07T16:26:07.916Z,18.19
2019-05-07T16:28:39.253Z,18.19
2019-05-07T16:31:10.522Z,18.10
2019-05-07T16:33:43.078Z,18.08
2019-05-07T16:36:14.368Z,18.14
2019-05-07T16:38:47.545Z,18.13
2019-05-07T16:41:18.830Z,17.97
2019-05-07T16:43:52.281Z,17.95
2019-05-07T16:46:23.247Z,17.79
2019-05-07T16:48:54.656Z,17.80
2019-05-07T16:51:26.027Z,17.78
2019-05-07T16:53:57.454Z,17.64
2019-05-07T16:56:29.056Z,17.55
2019-05-07T16:59:02.067Z,17.45
2019-05-07T17:01:33.426Z,17.40
2019-05-07T17:04:05.402Z,17.54
2019-05-07T17:06:36.904Z,17.52
2019-05-07T17:09:09.900Z,17.45
2019-05-07T17:11:43.463Z,17.42
2019-05-07T17:14:14.196Z,17.42
2019-05-07T17:16:47.320Z,17.52
2019-05-07T17:19:18.762Z,17.61
2019-05-07T17:21:51.958Z,17.55
2019-05-07T17:24:23.278Z,17.63
2019-05-07T17:26:54.644Z,17.53
2019-05-07T17:29:25.976Z,17.45
2019-05-07T17:31:57.255Z,17.49
2019-05-07T17:34:28.566Z,17.46
2019-05-07T17:37:01.988Z,17.47
2019-05-07T17:39:33.105Z,17.45
2019-05-07T17:42:04.466Z,17.42
2019-05-07T17:44:37.873Z,17.33
2019-05-07T17:47:09.220Z,17.28
2019-05-07T17:49:41.806Z,17.22
2019-05-07T17:52:14.072Z,17.31
2019-05-07T17:54:45.925Z,17.41
2019-05-07T17:57:18.896Z,17.46
2019-05-07T17:59:52.492Z,17.47
2019-05-07T18:02:25.248Z,17.54
2019-05-07T18:04:56.677Z,17.60
2019-05-07T18:07:28.028Z,17.64
2019-05-07T18:09:59.516Z,17.62
2019-05-07T18:12:32.019Z,17.59
2019-05-07T18:15:04.848Z,17.59
2019-05-07T18:17:43.672Z,17.65
2019-05-07T18:20:15.251Z,17.65
2019-05-07T18:22:46.670Z,17.67
2019-05-07T18:25:18.229Z,17.54
2019-05-07T18:27:49.611Z,17.41
2019-05-07T18:30:23.529Z,17.51
2019-05-07T18:33:02.415Z,17.52
2019-05-07T18:35:34.085Z,17.46
2019-05-07T18:38:05.538Z,17.40
2019-05-07T18:40:38.595Z,17.50
2019-05-07T18:43:12.080Z,17.44
2019-05-07T18:45:43.256Z,17.43
2019-05-07T18:48:14.642Z,17.54
2019-05-07T18:50:46.317Z,17.57
2019-05-07T18:53:18.036Z,17.55
2019-05-07T18:55:51.601Z,17.45
2019-05-07T18:58:22.797Z,17.48
2019-05-07T19:01:07.964Z,17.38
2019-05-07T19:03:39.433Z,17.34
2019-05-07T19:06:13.515Z,17.32
2019-05-07T19:08:44.590Z,17.32
2019-05-07T19:11:16.118Z,17.25
2019-05-07T19:13:47.684Z,17.26
2019-05-07T19:16:19.213Z,17.18
2019-05-07T19:18:50.617Z,17.14
2019-05-07T19:21:22.478Z,17.15
2019-05-07T19:23:54.186Z,17.13
2019-05-07T19:26:25.637Z,16.99
2019-05-07T19:28:57.134Z,16.95
2019-05-07T19:31:28.732Z,16.92
2019-05-07T19:34:00.289Z,16.98
2019-05-07T19:36:32.243Z,16.98
2019-05-07T19:39:05.350Z,16.93
2019-05-07T19:41:37.233Z,16.92
2019-05-07T19:44:09.716Z,16.90
2019-05-07T19:46:41.142Z,16.79
2019-05-07T19:49:12.612Z,16.80
2019-05-07T19:51:44.109Z,16.76
2019-05-07T19:54:15.583Z,16.76
2019-05-07T19:56:47.098Z,16.79
2019-05-07T19:59:18.706Z,16.83
2019-05-07T20:01:51.913Z,16.80
2019-05-07T20:04:23.349Z,16.79
2019-05-07T20:06:54.840Z,16.73
2019-05-07T20:09:28.551Z,16.74
2019-05-07T20:12:00.043Z,16.65
2019-05-07T20:14:33.065Z,16.62
2019-05-07T20:17:05.104Z,16.55
2019-05-07T20:19:37.043Z,16.46
2019-05-07T20:22:08.982Z,16.42
2019-05-07T20:24:41.797Z,16.40
2019-05-07T20:27:13.582Z,16.33
2019-05-07T20:29:45.115Z,16.22
2019-05-07T20:32:16.802Z,16.16
2019-05-07T20:34:48.429Z,16.14
2019-05-07T20:37:21.523Z,16.12
2019-05-07T20:39:53.222Z,16.19
2019-05-07T20:42:26.319Z,16.26
2019-05-07T20:44:59.930Z,16.23
2019-05-07T20:47:32.539Z,16.21
2019-05-07T20:50:06.676Z,16.18
2019-05-07T20:52:38.268Z,16.07
2019-05-07T20:55:27.965Z,16.03
2019-05-07T20:57:51.052Z,15.97
2019-05-07T21:00:25.015Z,15.90
2019-05-07T21:03:14.891Z,15.85
2019-05-07T21:05:46.328Z,15.89
2019-05-07T21:08:18.867Z,15.84
2019-05-07T21:10:50.244Z,15.79
2019-05-07T21:13:28.482Z,15.70
2019-05-07T21:15:55.084Z,15.70
2019-05-07T21:18:26.647Z,15.62
2019-05-07T21:20:58.113Z,15.65
2019-05-07T21:23:29.621Z,15.74
2019-05-07T21:26:02.187Z,15.81
2019-05-07T21:28:33.926Z,15.91
2019-05-07T21:31:05.289Z,15.91
2019-05-07T21:33:37.599Z,15.87
2019-05-07T21:36:09.136Z,15.93
2019-05-07T21:38:42.548Z,15.87
2019-05-07T21:41:13.839Z,15.79
2019-05-07T21:43:46.612Z,15.82
2019-05-07T21:46:17.976Z,15.80
2019-05-07T21:48:51.777Z,15.65
2019-05-07T21:51:23.697Z,15.70
2019-05-07T21:53:59.854Z,15.72
2019-05-07T21:56:32.955Z,15.73
2019-05-07T21:59:06.046Z,15.88
2019-05-07T22:01:43.403Z,15.88
2019-05-07T22:04:12.605Z,16.03
2019-05-07T22:06:45.578Z,16.11
2019-05-07T22:09:17.578Z,16.04
2019-05-07T22:11:49.024Z,16.12
2019-05-07T22:14:22.317Z,16.06
2019-05-07T22:16:54.640Z,16.02
2019-05-07T22:19:26.278Z,16.03
2019-05-07T22:21:57.676Z,16.07
2019-05-07T22:24:29.191Z,16.08
2019-05-07T22:27:01.739Z,16.07
2019-05-07T22:29:33.752Z,15.82
2019-05-07T22:32:12.650Z,15.79
2019-05-07T22:34:51.851Z,15.87
2019-05-07T22:37:26.215Z,15.86
2019-05-07T22:40:07.010Z,15.88
2019-05-07T22:42:39.467Z,15.80
2019-05-07T22:45:12.128Z,15.81
2019-05-07T22:47:43.875Z,15.89
2019-05-07T22:50:15.495Z,15.98
2019-05-07T22:52:46.959Z,15.92
2019-05-07T22:55:18.372Z,15.96
2019-05-07T22:57:54.391Z,15.99
2019-05-07T23:00:32.123Z,15.99
2019-05-07T23:03:03.716Z,15.99
2019-05-07T23:05:35.226Z,16.10
2019-05-07T23:08:06.679Z,16.09
2019-05-07T23:10:38.105Z,16.09
2019-05-07T23:13:09.413Z,16.09
2019-05-07T23:15:42.919Z,16.10
2019-05-07T23:18:14.132Z,16.12
2019-05-07T23:20:45.570Z,16.09
2019-05-07T23:23:16.965Z,16.13
2019-05-07T23:25:48.456Z,16.02
2019-05-07T23:28:19.968Z,16.05
2019-05-07T23:30:51.933Z,16.16
2019-05-07T23:33:23.497Z,16.16
2019-05-07T23:35:55.042Z,16.18
2019-05-07T23:38:26.555Z,16.29
2019-05-07T23:41:08.449Z,16.29
2019-05-07T23:43:40.015Z,16.30
2019-05-07T23:46:12.835Z,16.28
2019-05-07T23:48:44.450Z,16.21
2019-05-07T23:51:15.984Z,16.30
2019-05-07T23:53:47.384Z,16.30
2019-05-07T23:56:18.928Z,16.29
2019-05-07T23:58:52.445Z,16.35
